Yasuj, Iran
Current Conditions -  °F | °C
As of 12:30 PM on Monday 22 Dec 2014 (Local Time) from OISS Reporting Station
Scattered Clouds Scattered Clouds  
Wind Chill: 13°   Ceiling: Unl
Heat Index: 13°   Visibility: 6mi
Dew Point:   Wind: 12mph
Humidity: 44%   Direction: 320°NW
Pressure: 29.97"   Gusts: NA
Location:  30.67°N, 51.58°E
Report Text: OISS 220930Z 32010KT 9999 FEW035CB SCT040 13/01 Q1015 A2998
Loading
Personal Weather Stations






























Interactive Weather Map New forecast layout! Learn more

10-Day Weather Forecast

Advertisements
Track Severe Weather on mobile